YMML/MEL METAR and TAF weather

Enter ICAO airport designator
Station Type Date Time Source
YMML METAR 2020/09/21 08:30 UTC NOAA

YMML 210830Z 01009KT CAVOK 14/05 Q1003 FM0830 MOD TURB BLW 5000FT


Station Type Date Time Source
YMML Decoded METAR 2020/09/21 08:30 UTC NOAA

Melbourne Airport, Australia (YMML) 37-40S 144-50E 141M
Sep 21, 2020 - 04:30 AM EDT / 2020.09.21 0830 UTC
Wind: from the N (010 degrees) at 10 MPH (9 KT):0
Visibility: greater than 7 mile(s):0
Temperature: 57 F (14 C)
Dew Point: 41 F (5 C)
Relative Humidity: 54%
Pressure (altimeter): 29.62 in. Hg (1003 hPa)
ob: YMML 210830Z 01009KT CAVOK 14/05 Q1003 FM0830 MOD TURB BLW 5000FT
cycle: 8

Station Type Date Time Source
YMML TAF 2020/09/21 06:33 UTC NOAA

TAF YMML 210501Z 2106/2212 35018G30KT CAVOK
BECMG 2107/2109 36014KT CAVOK
BECMG 2121/2123 34020G35KT 9999 -SHRA SCT050
FM220500 28015G25KT 9999 -SHRA SCT030
FM220900 34012KT CAVOK INTER 2204/2208 4000 SHRA BKN025

Example: see airport list